createdAt,value
2023-03-11T00:00:54.599Z,99.90
2023-03-11T00:03:24.906Z,99.90
2023-03-11T00:05:58.685Z,99.90
2023-03-11T00:08:29.591Z,99.90
2023-03-11T00:11:00.768Z,99.90
2023-03-11T00:13:30.638Z,99.90
2023-03-11T00:15:59.915Z,99.90
2023-03-11T00:18:31.723Z,99.90
2023-03-11T00:21:01.349Z,99.90
2023-03-11T00:23:30.066Z,99.90
2023-03-11T00:26:00.004Z,99.90
2023-03-11T00:28:28.790Z,99.90
2023-03-11T00:30:57.455Z,99.90
2023-03-11T00:33:26.622Z,99.90
2023-03-11T00:35:56.509Z,99.90
2023-03-11T00:38:25.048Z,99.90
2023-03-11T00:40:53.545Z,99.90
2023-03-11T00:43:22.018Z,99.90
2023-03-11T00:45:50.740Z,99.90
2023-03-11T00:48:19.288Z,99.90
2023-03-11T00:50:48.477Z,99.90
2023-03-11T00:53:18.302Z,99.90
2023-03-11T00:55:46.751Z,99.90
2023-03-11T00:58:15.231Z,99.90
2023-03-11T01:00:43.730Z,99.90
2023-03-11T01:03:12.256Z,99.90
2023-03-11T01:05:40.856Z,99.90
2023-03-11T01:08:10.367Z,99.90
2023-03-11T01:10:40.279Z,99.90
2023-03-11T01:13:08.976Z,99.90
2023-03-11T01:15:39.343Z,99.90
2023-03-11T01:18:08.704Z,99.90
2023-03-11T01:20:39.160Z,99.90
2023-03-11T01:23:08.781Z,99.90
2023-03-11T01:25:39.248Z,99.90
2023-03-11T01:28:08.707Z,99.90
2023-03-11T01:30:39.768Z,99.90
2023-03-11T01:33:10.117Z,99.90
2023-03-11T01:35:40.108Z,99.90
2023-03-11T01:38:08.804Z,99.90
2023-03-11T01:40:43.144Z,99.90
2023-03-11T01:43:49.545Z,99.90
2023-03-11T01:46:21.960Z,99.90
2023-03-11T01:48:52.602Z,99.90
2023-03-11T01:51:29.187Z,99.90
2023-03-11T01:54:00.935Z,99.90
2023-03-11T01:56:32.133Z,99.90
2023-03-11T01:59:00.649Z,99.90
2023-03-11T02:01:29.566Z,99.90
2023-03-11T02:03:59.110Z,99.90
2023-03-11T02:06:27.814Z,99.90
2023-03-11T02:08:57.153Z,99.90
2023-03-11T02:11:28.764Z,99.90
2023-03-11T02:14:05.059Z,99.90
2023-03-11T02:16:34.230Z,99.90
2023-03-11T02:19:27.201Z,99.90
2023-03-11T02:21:56.244Z,99.90
2023-03-11T02:24:32.191Z,99.90
2023-03-11T02:27:05.001Z,99.90
2023-03-11T02:29:35.782Z,99.90
2023-03-11T02:32:09.652Z,99.90
2023-03-11T02:34:40.564Z,99.90
2023-03-11T02:37:11.393Z,99.90
2023-03-11T02:39:42.576Z,99.90
2023-03-11T02:42:17.525Z,99.90
2023-03-11T02:44:49.236Z,99.90
2023-03-11T02:47:18.808Z,99.90
2023-03-11T02:49:47.415Z,99.90
2023-03-11T02:52:16.042Z,99.90
2023-03-11T02:54:44.536Z,99.90
2023-03-11T02:57:14.396Z,99.90
2023-03-11T02:59:42.888Z,99.90
2023-03-11T03:02:11.503Z,99.90
2023-03-11T03:04:39.988Z,99.90
2023-03-11T03:07:08.538Z,99.90
2023-03-11T03:09:38.354Z,99.90
2023-03-11T03:12:07.890Z,99.90
2023-03-11T03:14:37.722Z,99.90
2023-03-11T03:17:06.418Z,99.90
2023-03-11T03:19:35.087Z,99.90
2023-03-11T03:22:03.589Z,99.90
2023-03-11T03:24:32.533Z,99.90
2023-03-11T03:27:01.322Z,99.90
2023-03-11T03:29:29.757Z,99.90
2023-03-11T03:31:59.668Z,99.90
2023-03-11T03:34:28.124Z,99.90
2023-03-11T03:36:56.585Z,99.90
2023-03-11T03:39:25.069Z,99.90
2023-03-11T03:41:53.554Z,99.90
2023-03-11T03:44:22.265Z,99.90
2023-03-11T03:46:50.730Z,99.90
2023-03-11T03:49:20.638Z,99.90
2023-03-11T03:51:49.080Z,99.90
2023-03-11T03:54:17.625Z,99.90
2023-03-11T03:56:46.135Z,99.90
2023-03-11T03:59:14.944Z,99.90
2023-03-11T04:01:43.640Z,99.90
2023-03-11T04:04:12.094Z,99.90
2023-03-11T04:06:41.989Z,99.90
2023-03-11T04:09:12.822Z,99.90
2023-03-11T04:11:41.342Z,99.90
2023-03-11T04:14:09.797Z,99.90
2023-03-11T04:16:38.791Z,99.90
2023-03-11T04:19:07.571Z,99.90
2023-03-11T04:21:36.320Z,99.90
2023-03-11T04:24:06.415Z,99.90
2023-03-11T04:26:34.896Z,99.90
2023-03-11T04:29:03.404Z,99.90
2023-03-11T04:31:31.842Z,99.90
2023-03-11T04:34:00.309Z,99.90
2023-03-11T04:36:29.232Z,99.90
2023-03-11T04:38:58.324Z,99.90
2023-03-11T04:41:28.177Z,99.90
2023-03-11T04:43:56.651Z,99.90
2023-03-11T04:46:25.220Z,99.90
2023-03-11T04:48:53.806Z,99.90
2023-03-11T04:51:22.286Z,99.90
2023-03-11T04:53:50.958Z,99.90
2023-03-11T04:56:19.442Z,99.90
2023-03-11T04:58:49.589Z,99.90
2023-03-11T05:01:18.060Z,99.90
2023-03-11T05:03:47.135Z,99.90
2023-03-11T05:06:15.642Z,99.90
2023-03-11T05:08:44.170Z,99.90
2023-03-11T05:11:12.636Z,99.90
2023-03-11T05:13:41.095Z,99.90
2023-03-11T05:16:11.292Z,99.90
2023-03-11T05:18:39.778Z,99.90
2023-03-11T05:21:08.242Z,99.90
2023-03-11T05:23:36.718Z,99.90
2023-03-11T05:26:05.657Z,99.90
2023-03-11T05:28:34.206Z,99.90
2023-03-11T05:31:02.706Z,99.90
2023-03-11T05:33:35.620Z,99.90
2023-03-11T05:36:09.875Z,99.90
2023-03-11T05:38:39.714Z,99.90
2023-03-11T05:41:08.172Z,99.90
2023-03-11T05:43:36.611Z,99.90
2023-03-11T05:46:05.446Z,99.90
2023-03-11T05:48:36.430Z,99.90
2023-03-11T05:51:08.909Z,99.90
2023-03-11T05:53:37.760Z,99.90
2023-03-11T05:56:07.815Z,99.90
2023-03-11T05:58:36.244Z,99.90
2023-03-11T06:01:11.072Z,99.90
2023-03-11T06:03:42.133Z,99.90
2023-03-11T06:06:13.395Z,99.90
2023-03-11T06:08:46.066Z,99.90
2023-03-11T06:11:15.441Z,99.90
2023-03-11T06:13:43.884Z,99.90
2023-03-11T06:16:13.007Z,99.90
2023-03-11T06:18:42.867Z,99.90
2023-03-11T06:21:17.341Z,99.90
2023-03-11T06:23:45.948Z,99.90
2023-03-11T06:26:17.310Z,99.90
2023-03-11T06:28:46.255Z,99.90
2023-03-11T06:31:19.517Z,99.90
2023-03-11T06:33:50.086Z,99.90
2023-03-11T06:36:20.649Z,99.90
2023-03-11T06:38:50.441Z,99.90
2023-03-11T06:41:18.958Z,99.90
2023-03-11T06:43:47.661Z,99.90
2023-03-11T06:46:19.532Z,99.90
2023-03-11T06:48:52.227Z,99.90
2023-03-11T06:51:21.474Z,99.90
2023-03-11T06:53:51.902Z,99.90
2023-03-11T06:56:22.297Z,99.90
2023-03-11T06:58:51.470Z,99.90
2023-03-11T07:01:22.109Z,99.90
2023-03-11T07:03:52.890Z,99.90
2023-03-11T07:06:23.995Z,99.90
2023-03-11T07:08:54.267Z,99.90
2023-03-11T07:11:26.228Z,99.90
2023-03-11T07:13:56.005Z,99.90
2023-03-11T07:16:27.009Z,99.90
2023-03-11T07:19:00.988Z,99.90
2023-03-11T07:21:31.786Z,99.90
2023-03-11T07:24:02.937Z,99.90
2023-03-11T07:26:33.582Z,99.90
2023-03-11T07:29:02.814Z,99.90
2023-03-11T07:31:34.252Z,99.90
2023-03-11T07:34:11.166Z,99.90
2023-03-11T07:36:42.668Z,99.90
2023-03-11T07:39:16.340Z,99.90
2023-03-11T07:41:45.645Z,99.90
2023-03-11T07:44:16.268Z,99.90
2023-03-11T07:46:45.908Z,99.90
2023-03-11T07:49:15.794Z,99.90
2023-03-11T07:51:45.126Z,99.90
2023-03-11T07:54:14.566Z,99.90
2023-03-11T07:56:43.285Z,99.90
2023-03-11T07:59:11.913Z,99.90
2023-03-11T08:01:41.529Z,99.90
2023-03-11T08:04:14.389Z,99.90
2023-03-11T08:06:46.842Z,99.90
2023-03-11T08:09:15.668Z,99.90
2023-03-11T08:11:44.163Z,99.90
2023-03-11T08:14:12.649Z,99.90
2023-03-11T08:16:42.301Z,99.90
2023-03-11T08:19:12.964Z,99.90
2023-03-11T08:21:43.109Z,99.90
2023-03-11T08:24:14.100Z,99.90
2023-03-11T08:26:43.007Z,99.90
2023-03-11T08:29:12.532Z,99.90
2023-03-11T08:31:41.239Z,99.90
2023-03-11T08:34:12.323Z,99.90
2023-03-11T08:36:41.169Z,99.90
2023-03-11T08:39:11.308Z,99.90
2023-03-11T08:41:39.983Z,88.30
2023-03-11T08:44:08.773Z,90.20
2023-03-11T08:46:40.932Z,99.90
2023-03-11T08:49:09.994Z,84.20
2023-03-11T08:51:38.640Z,94.00
2023-03-11T08:54:07.786Z,91.80
2023-03-11T08:56:37.796Z,97.60
2023-03-11T08:59:06.934Z,82.20
2023-03-11T09:01:35.379Z,86.30
2023-03-11T09:04:04.063Z,87.00
2023-03-11T09:06:32.842Z,70.60
2023-03-11T09:09:01.756Z,69.80
2023-03-11T09:11:30.414Z,74.80
2023-03-11T09:14:00.308Z,86.40
2023-03-11T09:16:28.921Z,90.60
2023-03-11T09:19:00.338Z,72.20
2023-03-11T09:21:29.068Z,74.80
2023-03-11T09:23:57.527Z,70.80
2023-03-11T09:26:26.181Z,72.10
2023-03-11T09:28:54.840Z,73.90
2023-03-11T09:31:25.109Z,70.60
2023-03-11T09:33:55.763Z,70.70
2023-03-11T09:36:24.711Z,69.30
2023-03-11T09:38:53.395Z,69.70
2023-03-11T09:41:31.690Z,71.40
2023-03-11T09:44:14.778Z,65.00
2023-03-11T09:47:32.130Z,68.40
2023-03-11T09:50:16.710Z,76.10
2023-03-11T09:52:52.840Z,67.10
2023-03-11T09:55:37.671Z,64.80
2023-03-11T09:58:23.673Z,77.90
2023-03-11T10:00:53.520Z,81.00
2023-03-11T10:03:33.761Z,76.90
2023-03-11T10:06:14.318Z,75.00
2023-03-11T10:08:48.984Z,75.30
2023-03-11T10:11:49.873Z,79.10
2023-03-11T10:14:43.588Z,66.10
2023-03-11T10:17:23.964Z,71.60
2023-03-11T10:19:58.635Z,66.00
2023-03-11T10:22:36.286Z,71.60
2023-03-11T10:25:12.415Z,76.60
2023-03-11T10:27:48.233Z,75.20
2023-03-11T10:30:26.240Z,72.50
2023-03-11T10:33:00.617Z,65.70
2023-03-11T10:35:39.484Z,70.90
2023-03-11T10:38:16.528Z,62.20
2023-03-11T10:40:47.058Z,66.40
2023-03-11T10:43:20.438Z,67.20
2023-03-11T10:45:51.745Z,66.80
2023-03-11T10:48:21.895Z,70.30
2023-03-11T10:50:59.821Z,70.70
2023-03-11T10:53:28.270Z,74.40
2023-03-11T10:55:59.802Z,66.20
2023-03-11T10:58:31.080Z,67.00
2023-03-11T11:01:06.320Z,68.50
2023-03-11T11:03:35.833Z,65.80
2023-03-11T11:06:08.961Z,65.90
2023-03-11T11:08:37.445Z,65.20
2023-03-11T11:11:22.334Z,65.40
2023-03-11T11:13:58.864Z,61.70
2023-03-11T11:16:28.952Z,60.10
2023-03-11T11:19:04.354Z,64.30
2023-03-11T11:21:37.536Z,65.50
2023-03-11T11:24:16.694Z,63.10
2023-03-11T11:27:05.036Z,59.60
2023-03-11T11:29:34.854Z,53.60
2023-03-11T11:32:21.612Z,59.60
2023-03-11T11:35:00.387Z,59.10
2023-03-11T11:37:33.573Z,58.50
2023-03-11T11:40:11.705Z,60.80
2023-03-11T11:42:42.693Z,64.20
2023-03-11T11:45:18.313Z,63.60
2023-03-11T11:47:50.911Z,61.70
2023-03-11T11:50:27.803Z,62.60
2023-03-11T11:53:10.147Z,58.10
2023-03-11T11:55:43.533Z,56.70
2023-03-11T11:58:13.390Z,54.70
2023-03-11T12:00:57.124Z,65.00
2023-03-11T12:04:12.685Z,59.00
2023-03-11T12:06:49.307Z,63.30
2023-03-11T12:09:29.283Z,62.10
2023-03-11T12:12:08.451Z,62.10
2023-03-11T12:14:43.717Z,61.80
2023-03-11T12:17:15.014Z,60.10
2023-03-11T12:19:51.264Z,61.30
2023-03-11T12:23:11.267Z,58.80
2023-03-11T12:25:49.605Z,66.80
2023-03-11T12:28:24.808Z,61.00
2023-03-11T12:30:57.884Z,67.10
2023-03-11T12:33:33.174Z,64.30
2023-03-11T12:38:50.493Z,61.20
2023-03-11T12:41:33.758Z,64.60
2023-03-11T12:44:22.248Z,63.80
2023-03-11T12:47:25.701Z,67.40
2023-03-11T12:49:56.061Z,61.20
2023-03-11T12:52:53.422Z,65.10
2023-03-11T12:55:35.287Z,63.70
2023-03-11T12:58:34.284Z,63.40
2023-03-11T13:01:36.127Z,63.60
2023-03-11T13:04:26.006Z,65.20
2023-03-11T13:07:32.466Z,64.40
2023-03-11T13:10:20.439Z,61.70
2023-03-11T13:12:50.441Z,63.50
2023-03-11T13:15:37.056Z,64.10
2023-03-11T13:18:25.127Z,57.20
2023-03-11T13:20:58.908Z,58.80
2023-03-11T13:23:37.741Z,67.60
2023-03-11T13:26:40.423Z,65.60
2023-03-11T13:29:49.623Z,64.50
2023-03-11T13:32:56.302Z,59.10
2023-03-11T13:35:47.874Z,54.00
2023-03-11T13:38:40.997Z,57.10
2023-03-11T13:41:17.870Z,57.80
2023-03-11T13:43:50.402Z,57.60
2023-03-11T13:46:30.155Z,57.30
2023-03-11T13:49:07.720Z,61.90
2023-03-11T13:51:42.457Z,58.10
2023-03-11T13:54:33.925Z,54.40
2023-03-11T13:57:04.272Z,56.50
2023-03-11T13:59:34.975Z,55.90
2023-03-11T14:02:16.970Z,52.80
2023-03-11T14:04:51.577Z,60.20
2023-03-11T14:07:28.644Z,56.30
2023-03-11T14:10:31.227Z,57.80
2023-03-11T14:13:09.093Z,52.80
2023-03-11T14:15:48.805Z,58.10
2023-03-11T14:18:37.840Z,59.70
2023-03-11T14:21:13.925Z,58.50
2023-03-11T14:23:44.928Z,59.60
2023-03-11T14:26:20.170Z,56.90
2023-03-11T14:28:52.701Z,59.90
2023-03-11T14:31:33.499Z,58.10
2023-03-11T14:34:06.846Z,56.60
2023-03-11T14:36:44.960Z,59.70
2023-03-11T14:39:29.666Z,59.10
2023-03-11T14:42:05.596Z,62.30
2023-03-11T14:44:37.447Z,60.60
2023-03-11T14:47:13.314Z,60.70
2023-03-11T14:49:43.371Z,62.10
2023-03-11T14:52:20.557Z,61.60
2023-03-11T14:54:50.668Z,62.80
2023-03-11T14:57:24.420Z,62.20
2023-03-11T14:59:54.602Z,62.50
2023-03-11T15:02:41.899Z,59.70
2023-03-11T15:05:19.196Z,63.30
2023-03-11T15:07:52.860Z,62.50
2023-03-11T15:10:21.725Z,63.70
2023-03-11T15:12:50.238Z,64.90
2023-03-11T15:15:28.510Z,63.00
2023-03-11T15:17:58.973Z,64.50
2023-03-11T15:20:33.981Z,64.40
2023-03-11T15:23:07.725Z,65.10
2023-03-11T15:25:41.014Z,65.00
2023-03-11T15:28:28.423Z,63.90
2023-03-11T15:31:36.822Z,64.30
2023-03-11T15:34:25.182Z,64.40
2023-03-11T15:37:21.379Z,65.30
2023-03-11T15:39:53.570Z,68.00
2023-03-11T15:42:25.776Z,64.90
2023-03-11T15:45:17.639Z,66.20
2023-03-11T15:47:48.138Z,64.70
2023-03-11T15:50:27.334Z,65.70
2023-03-11T15:52:59.968Z,67.90
2023-03-11T15:55:29.825Z,67.70
2023-03-11T15:58:05.452Z,67.00
2023-03-11T16:00:34.284Z,66.40
2023-03-11T16:03:02.828Z,66.80
2023-03-11T16:05:31.396Z,67.30
2023-03-11T16:07:59.832Z,68.40
2023-03-11T16:10:29.782Z,67.50
2023-03-11T16:12:58.535Z,66.60
2023-03-11T16:15:30.091Z,66.40
2023-03-11T16:18:01.808Z,68.40
2023-03-11T16:20:34.320Z,67.80
2023-03-11T16:23:03.029Z,67.90
2023-03-11T16:25:36.520Z,66.30
2023-03-11T16:28:05.906Z,69.40
2023-03-11T16:30:36.052Z,67.70
2023-03-11T16:33:05.304Z,65.00
2023-03-11T16:35:34.412Z,68.00
2023-03-11T16:38:02.968Z,67.10
2023-03-11T16:40:32.813Z,66.70
2023-03-11T16:43:04.274Z,64.90
2023-03-11T16:45:33.218Z,65.30
2023-03-11T16:48:02.330Z,65.70
2023-03-11T16:50:31.320Z,66.40
2023-03-11T16:53:00.254Z,66.40
2023-03-11T16:55:29.897Z,66.40
2023-03-11T16:57:59.755Z,66.90
2023-03-11T17:00:28.291Z,67.90
2023-03-11T17:02:56.948Z,68.20
2023-03-11T17:05:25.528Z,68.50
2023-03-11T17:08:00.069Z,68.50
2023-03-11T17:10:29.548Z,66.80
2023-03-11T17:12:59.764Z,67.00
2023-03-11T17:15:28.253Z,68.60
2023-03-11T17:17:56.980Z,69.40
2023-03-11T17:20:25.785Z,70.40
2023-03-11T17:22:54.240Z,71.00
2023-03-11T17:25:22.758Z,71.60
2023-03-11T17:27:51.693Z,70.60
2023-03-11T17:30:36.045Z,71.90
2023-03-11T17:33:05.732Z,70.30
2023-03-11T17:35:34.800Z,72.50
2023-03-11T17:38:04.413Z,70.40
2023-03-11T17:40:32.944Z,72.50
2023-03-11T17:43:01.591Z,73.50
2023-03-11T17:45:31.657Z,76.70
2023-03-11T17:48:00.341Z,72.90
2023-03-11T17:50:28.953Z,76.10
2023-03-11T17:52:57.809Z,77.90
2023-03-11T17:55:26.383Z,78.30
2023-03-11T17:57:54.877Z,78.10
2023-03-11T18:00:24.087Z,77.10
2023-03-11T18:02:54.097Z,77.10
2023-03-11T18:05:23.136Z,81.10
2023-03-11T18:07:51.662Z,84.90
2023-03-11T18:10:21.505Z,83.20
2023-03-11T18:12:50.173Z,85.30
2023-03-11T18:15:19.945Z,85.70
2023-03-11T18:17:49.147Z,84.80
2023-03-11T18:20:20.456Z,83.50
2023-03-11T18:22:48.913Z,84.40
2023-03-11T18:25:17.570Z,83.80
2023-03-11T18:27:46.218Z,83.70
2023-03-11T18:30:15.595Z,85.00
2023-03-11T18:32:44.850Z,85.50
2023-03-11T18:35:14.219Z,86.80
2023-03-11T18:37:44.247Z,89.30
2023-03-11T18:40:14.682Z,93.60
2023-03-11T18:42:43.405Z,93.80
2023-03-11T18:45:14.691Z,90.00
2023-03-11T18:47:43.164Z,94.20
2023-03-11T18:50:13.250Z,92.60
2023-03-11T18:52:43.128Z,93.00
2023-03-11T18:55:12.107Z,93.50
2023-03-11T18:57:43.185Z,94.50
2023-03-11T19:00:13.424Z,95.50
2023-03-11T19:02:42.022Z,93.00
2023-03-11T19:05:12.861Z,92.80
2023-03-11T19:07:41.312Z,93.40
2023-03-11T19:10:15.141Z,94.00
2023-03-11T19:12:45.229Z,95.90
2023-03-11T19:15:13.879Z,96.20
2023-03-11T19:17:42.686Z,97.40
2023-03-11T19:20:13.184Z,98.10
2023-03-11T19:22:41.668Z,98.60
2023-03-11T19:25:11.767Z,97.00
2023-03-11T19:27:40.350Z,97.40
2023-03-11T19:30:10.837Z,95.70
2023-03-11T19:32:39.408Z,95.80
2023-03-11T19:35:11.175Z,99.30
2023-03-11T19:37:39.880Z,98.80
2023-03-11T19:40:12.778Z,99.90
2023-03-11T19:42:41.258Z,99.90
2023-03-11T19:45:10.959Z,99.90
2023-03-11T19:47:39.875Z,99.90
2023-03-11T19:50:09.947Z,99.90
2023-03-11T19:52:38.690Z,99.90
2023-03-11T19:55:08.718Z,99.90
2023-03-11T19:57:38.880Z,99.90
2023-03-11T20:00:09.683Z,99.90
2023-03-11T20:02:38.210Z,99.90
2023-03-11T20:05:08.485Z,99.90
2023-03-11T20:07:36.941Z,99.90
2023-03-11T20:10:06.426Z,99.90
2023-03-11T20:12:36.468Z,99.90
2023-03-11T20:15:07.611Z,99.90
2023-03-11T20:17:36.039Z,99.90
2023-03-11T20:20:04.850Z,99.90
2023-03-11T20:22:33.324Z,99.90
2023-03-11T20:25:01.786Z,99.90
2023-03-11T20:27:30.725Z,99.90
2023-03-11T20:29:59.407Z,99.90
2023-03-11T20:32:30.945Z,99.90
2023-03-11T20:34:59.660Z,99.90
2023-03-11T20:37:30.063Z,99.90
2023-03-11T20:39:58.773Z,99.90
2023-03-11T20:42:27.251Z,99.90
2023-03-11T20:44:56.748Z,99.90
2023-03-11T20:47:25.613Z,99.90
2023-03-11T20:49:57.178Z,99.90
2023-03-11T20:52:27.061Z,99.90
2023-03-11T20:54:55.565Z,99.90
2023-03-11T20:57:24.359Z,99.90
2023-03-11T20:59:53.140Z,99.90
2023-03-11T21:02:22.650Z,99.90
2023-03-11T21:04:51.190Z,99.90
2023-03-11T21:07:21.003Z,99.90
2023-03-11T21:09:54.581Z,99.90
2023-03-11T21:12:23.498Z,99.90
2023-03-11T21:14:51.977Z,99.90
2023-03-11T21:17:20.543Z,99.90
2023-03-11T21:19:49.014Z,99.90
2023-03-11T21:22:17.527Z,99.90
2023-03-11T21:24:47.630Z,99.90
2023-03-11T21:27:16.384Z,99.90
2023-03-11T21:29:45.025Z,99.90
2023-03-11T21:32:13.923Z,99.90
2023-03-11T21:34:42.590Z,99.90
2023-03-11T21:37:11.347Z,99.90
2023-03-11T21:39:39.895Z,99.90
2023-03-11T21:42:09.799Z,99.90
2023-03-11T21:44:38.530Z,99.90
2023-03-11T21:47:07.342Z,99.90
2023-03-11T21:49:36.332Z,99.90
2023-03-11T21:52:05.144Z,99.90
2023-03-11T21:54:33.711Z,99.90
2023-03-11T21:57:03.814Z,99.90
2023-03-11T21:59:33.854Z,99.90
2023-03-11T22:02:03.542Z,99.90
2023-03-11T22:04:33.059Z,99.90
2023-03-11T22:07:01.758Z,99.90
2023-03-11T22:09:30.525Z,99.90
2023-03-11T22:11:59.590Z,99.90
2023-03-11T22:14:28.264Z,99.90
2023-03-11T22:16:58.311Z,99.90
2023-03-11T22:19:27.297Z,99.90
2023-03-11T22:21:55.763Z,99.90
2023-03-11T22:24:24.291Z,99.90
2023-03-11T22:26:52.982Z,99.90
2023-03-11T22:29:21.531Z,99.90
2023-03-11T22:31:50.087Z,99.90
2023-03-11T22:34:19.896Z,99.90
2023-03-11T22:36:48.432Z,99.90
2023-03-11T22:39:16.909Z,99.90
2023-03-11T22:41:45.371Z,99.90
2023-03-11T22:44:13.851Z,99.90
2023-03-11T22:46:42.291Z,99.90
2023-03-11T22:49:10.850Z,99.90
2023-03-11T22:51:40.904Z,99.90
2023-03-11T22:54:09.533Z,99.90
2023-03-11T22:56:38.229Z,99.90
2023-03-11T22:59:06.775Z,99.90
2023-03-11T23:01:35.239Z,99.90
2023-03-11T23:04:03.818Z,99.90
2023-03-11T23:06:32.397Z,99.90
2023-03-11T23:09:02.218Z,99.90
2023-03-11T23:11:30.780Z,99.90
2023-03-11T23:13:59.824Z,99.90
2023-03-11T23:16:28.332Z,99.90
2023-03-11T23:18:57.523Z,99.90
2023-03-11T23:21:29.302Z,99.90
2023-03-11T23:24:00.114Z,99.90
2023-03-11T23:26:30.955Z,99.90
2023-03-11T23:29:01.000Z,99.90
2023-03-11T23:31:31.234Z,99.90
2023-03-11T23:34:00.021Z,99.90
2023-03-11T23:36:30.408Z,99.90
2023-03-11T23:38:59.518Z,99.90
2023-03-11T23:41:29.398Z,99.90
2023-03-11T23:43:57.906Z,99.90
2023-03-11T23:46:26.684Z,99.90
2023-03-11T23:48:55.161Z,99.90
2023-03-11T23:51:23.712Z,99.90
2023-03-11T23:53:52.164Z,99.90
2023-03-11T23:56:21.047Z,99.90
2023-03-11T23:58:50.998Z,99.90
